sensor_id;sensor_type;location;lat;lon;timestamp;P1;P2;P0
69746;PMS7003;57018;50.278;19.134;2023-12-29T00:00:47;32.00;31.50;20.00
69746;PMS7003;57018;50.278;19.134;2023-12-29T00:03:17;31.00;29.50;18.50
69746;PMS7003;57018;50.278;19.134;2023-12-29T00:05:47;34.00;32.00;18.67
69746;PMS7003;57018;50.278;19.134;2023-12-29T00:08:16;29.50;28.50;17.00
69746;PMS7003;57018;50.278;19.134;2023-12-29T00:10:46;34.00;31.00;21.00
69746;PMS7003;57018;50.278;19.134;2023-12-29T00:13:16;28.00;28.00;19.00
69746;PMS7003;57018;50.278;19.134;2023-12-29T00:15:52;31.00;31.00;18.00
69746;PMS7003;57018;50.278;19.134;2023-12-29T00:18:23;31.00;29.00;20.00
69746;PMS7003;57018;50.278;19.134;2023-12-29T00:20:53;27.00;24.00;19.00
69746;PMS7003;57018;50.278;19.134;2023-12-29T00:23:23;30.00;24.50;16.50
69746;PMS7003;57018;50.278;19.134;2023-12-29T00:25:52;36.00;26.00;17.00
69746;PMS7003;57018;50.278;19.134;2023-12-29T00:28:22;39.00;34.00;20.00
69746;PMS7003;57018;50.278;19.134;2023-12-29T00:30:52;33.00;25.00;19.00
69746;PMS7003;57018;50.278;19.134;2023-12-29T00:33:22;27.50;26.50;17.50
69746;PMS7003;57018;50.278;19.134;2023-12-29T00:35:53;35.00;31.00;18.00
69746;PMS7003;57018;50.278;19.134;2023-12-29T00:38:24;34.00;31.00;19.50
69746;PMS7003;57018;50.278;19.134;2023-12-29T00:40:54;31.00;28.00;18.50
69746;PMS7003;57018;50.278;19.134;2023-12-29T00:43:24;32.33;30.33;17.00
69746;PMS7003;57018;50.278;19.134;2023-12-29T00:45:54;38.00;34.00;23.00
69746;PMS7003;57018;50.278;19.134;2023-12-29T00:48:23;33.00;33.00;19.00
69746;PMS7003;57018;50.278;19.134;2023-12-29T00:50:58;33.50;30.00;18.50
69746;PMS7003;57018;50.278;19.134;2023-12-29T00:53:28;31.00;28.00;17.00
69746;PMS7003;57018;50.278;19.134;2023-12-29T00:56:00;33.00;29.00;18.00
69746;PMS7003;57018;50.278;19.134;2023-12-29T00:58:30;38.50;33.50;20.50
69746;PMS7003;57018;50.278;19.134;2023-12-29T01:01:00;28.67;26.33;18.67
69746;PMS7003;57018;50.278;19.134;2023-12-29T01:03:30;29.50;29.50;17.50
69746;PMS7003;57018;50.278;19.134;2023-12-29T01:06:00;26.00;26.00;16.00
69746;PMS7003;57018;50.278;19.134;2023-12-29T01:08:30;33.00;27.50;17.50
69746;PMS7003;57018;50.278;19.134;2023-12-29T01:11:01;31.00;26.00;17.00
69746;PMS7003;57018;50.278;19.134;2023-12-29T01:13:31;28.50;26.50;18.50
69746;PMS7003;57018;50.278;19.134;2023-12-29T01:16:01;28.00;28.00;18.00
69746;PMS7003;57018;50.278;19.134;2023-12-29T01:18:31;30.50;26.50;17.00
69746;PMS7003;57018;50.278;19.134;2023-12-29T01:23:30;29.00;22.50;15.50
69746;PMS7003;57018;50.278;19.134;2023-12-29T01:26:00;27.00;22.00;15.50
69746;PMS7003;57018;50.278;19.134;2023-12-29T01:28:30;33.50;28.00;20.00
69746;PMS7003;57018;50.278;19.134;2023-12-29T01:31:00;29.67;25.00;18.33
69746;PMS7003;57018;50.278;19.134;2023-12-29T01:33:30;28.00;22.00;15.50
69746;PMS7003;57018;50.278;19.134;2023-12-29T01:36:00;25.00;21.50;15.50
69746;PMS7003;57018;50.278;19.134;2023-12-29T01:38:30;23.00;19.00;15.00
69746;PMS7003;57018;50.278;19.134;2023-12-29T01:41:00;29.00;29.00;19.00
69746;PMS7003;57018;50.278;19.134;2023-12-29T01:43:30;27.33;26.00;17.00
69746;PMS7003;57018;50.278;19.134;2023-12-29T01:46:00;27.00;23.00;18.00
69746;PMS7003;57018;50.278;19.134;2023-12-29T01:48:30;30.50;26.00;16.50
69746;PMS7003;57018;50.278;19.134;2023-12-29T01:51:00;22.50;22.50;14.50
69746;PMS7003;57018;50.278;19.134;2023-12-29T01:53:33;21.00;21.00;15.00
69746;PMS7003;57018;50.278;19.134;2023-12-29T01:56:04;25.50;24.00;14.00
69746;PMS7003;57018;50.278;19.134;2023-12-29T01:58:35;21.00;19.00;15.00
69746;PMS7003;57018;50.278;19.134;2023-12-29T02:01:05;20.00;18.00;12.00
69746;PMS7003;57018;50.278;19.134;2023-12-29T02:03:36;32.00;27.00;16.50
69746;PMS7003;57018;50.278;19.134;2023-12-29T02:06:07;29.00;22.00;15.00
69746;PMS7003;57018;50.278;19.134;2023-12-29T02:08:38;23.00;21.50;14.00
69746;PMS7003;57018;50.278;19.134;2023-12-29T02:11:10;30.00;25.00;16.00
69746;PMS7003;57018;50.278;19.134;2023-12-29T02:13:40;23.00;20.50;13.00
69746;PMS7003;57018;50.278;19.134;2023-12-29T02:16:12;27.00;24.00;17.00
69746;PMS7003;57018;50.278;19.134;2023-12-29T02:18:46;26.00;24.00;14.00
69746;PMS7003;57018;50.278;19.134;2023-12-29T02:21:18;21.50;20.00;14.00
69746;PMS7003;57018;50.278;19.134;2023-12-29T02:23:52;24.00;21.00;14.00
69746;PMS7003;57018;50.278;19.134;2023-12-29T02:26:22;29.00;26.00;15.00
69746;PMS7003;57018;50.278;19.134;2023-12-29T02:29:02;33.00;24.00;16.00
69746;PMS7003;57018;50.278;19.134;2023-12-29T02:31:37;23.00;21.00;13.00
69746;PMS7003;57018;50.278;19.134;2023-12-29T02:34:12;25.00;22.00;13.00
69746;PMS7003;57018;50.278;19.134;2023-12-29T02:36:45;22.00;20.00;14.00
69746;PMS7003;57018;50.278;19.134;2023-12-29T02:39:17;18.00;16.50;11.00
69746;PMS7003;57018;50.278;19.134;2023-12-29T02:41:47;15.00;15.00;11.00
69746;PMS7003;57018;50.278;19.134;2023-12-29T02:44:17;21.50;21.50;15.50
69746;PMS7003;57018;50.278;19.134;2023-12-29T02:46:49;21.00;20.00;13.00
69746;PMS7003;57018;50.278;19.134;2023-12-29T02:49:19;19.50;16.00;11.50
69746;PMS7003;57018;50.278;19.134;2023-12-29T02:51:49;15.33;14.00;10.67
69746;PMS7003;57018;50.278;19.134;2023-12-29T02:54:19;16.00;15.00;10.00
69746;PMS7003;57018;50.278;19.134;2023-12-29T02:56:49;16.00;16.00;12.00
69746;PMS7003;57018;50.278;19.134;2023-12-29T03:01:49;20.00;18.00;13.00
69746;PMS7003;57018;50.278;19.134;2023-12-29T03:04:18;19.00;17.00;13.00
69746;PMS7003;57018;50.278;19.134;2023-12-29T03:06:49;14.50;13.00;8.50
69746;PMS7003;57018;50.278;19.134;2023-12-29T03:09:19;19.00;15.50;11.50
69746;PMS7003;57018;50.278;19.134;2023-12-29T03:11:51;17.50;14.50;10.00
69746;PMS7003;57018;50.278;19.134;2023-12-29T03:14:21;19.00;15.00;12.50
69746;PMS7003;57018;50.278;19.134;2023-12-29T03:16:51;19.00;18.00;10.50
69746;PMS7003;57018;50.278;19.134;2023-12-29T03:19:20;17.00;14.00;9.00
69746;PMS7003;57018;50.278;19.134;2023-12-29T03:21:50;19.00;17.50;11.50
69746;PMS7003;57018;50.278;19.134;2023-12-29T03:24:23;11.00;11.00;10.00
69746;PMS7003;57018;50.278;19.134;2023-12-29T03:29:24;20.00;15.00;10.00
69746;PMS7003;57018;50.278;19.134;2023-12-29T03:31:54;16.00;16.00;10.00
69746;PMS7003;57018;50.278;19.134;2023-12-29T03:34:23;15.50;15.50;10.00
69746;PMS7003;57018;50.278;19.134;2023-12-29T03:36:53;14.67;14.00;9.67
69746;PMS7003;57018;50.278;19.134;2023-12-29T03:39:23;16.00;14.00;10.00
69746;PMS7003;57018;50.278;19.134;2023-12-29T03:41:53;14.00;13.00;7.00
69746;PMS7003;57018;50.278;19.134;2023-12-29T03:44:25;15.00;15.00;9.00
69746;PMS7003;57018;50.278;19.134;2023-12-29T03:46:55;17.00;17.00;11.00
69746;PMS7003;57018;50.278;19.134;2023-12-29T03:49:25;18.00;18.00;10.00
69746;PMS7003;57018;50.278;19.134;2023-12-29T03:51:55;16.00;16.00;10.00
69746;PMS7003;57018;50.278;19.134;2023-12-29T03:54:24;20.00;13.00;9.00
69746;PMS7003;57018;50.278;19.134;2023-12-29T03:56:56;19.00;16.00;13.00
69746;PMS7003;57018;50.278;19.134;2023-12-29T03:59:26;20.00;16.50;11.00
69746;PMS7003;57018;50.278;19.134;2023-12-29T04:01:56;19.00;16.00;11.00
69746;PMS7003;57018;50.278;19.134;2023-12-29T04:04:27;18.00;16.00;12.00
69746;PMS7003;57018;50.278;19.134;2023-12-29T04:06:56;13.50;12.00;8.00
69746;PMS7003;57018;50.278;19.134;2023-12-29T04:09:26;14.50;14.00;9.50
69746;PMS7003;57018;50.278;19.134;2023-12-29T04:11:59;16.50;16.50;11.00
69746;PMS7003;57018;50.278;19.134;2023-12-29T04:14:29;19.00;17.00;14.00
69746;PMS7003;57018;50.278;19.134;2023-12-29T04:16:59;20.00;17.00;10.50
69746;PMS7003;57018;50.278;19.134;2023-12-29T04:19:30;21.00;19.50;11.00
69746;PMS7003;57018;50.278;19.134;2023-12-29T04:22:00;17.33;15.33;10.33
69746;PMS7003;57018;50.278;19.134;2023-12-29T04:24:30;20.00;19.00;11.00
69746;PMS7003;57018;50.278;19.134;2023-12-29T04:27:00;20.00;20.00;14.00
69746;PMS7003;57018;50.278;19.134;2023-12-29T04:29:30;20.50;16.50;13.00
69746;PMS7003;57018;50.278;19.134;2023-12-29T04:32:00;17.00;17.00;13.00
69746;PMS7003;57018;50.278;19.134;2023-12-29T04:34:30;20.00;17.00;11.00
69746;PMS7003;57018;50.278;19.134;2023-12-29T04:37:00;21.67;21.00;13.33
69746;PMS7003;57018;50.278;19.134;2023-12-29T04:39:30;16.50;14.50;12.00
69746;PMS7003;57018;50.278;19.134;2023-12-29T04:42:00;19.00;16.00;13.00
69746;PMS7003;57018;50.278;19.134;2023-12-29T04:44:32;25.00;22.00;14.00
69746;PMS7003;57018;50.278;19.134;2023-12-29T04:47:02;21.00;21.00;14.00
69746;PMS7003;57018;50.278;19.134;2023-12-29T04:49:32;20.00;18.00;13.00
69746;PMS7003;57018;50.278;19.134;2023-12-29T04:52:04;21.00;20.00;13.00
69746;PMS7003;57018;50.278;19.134;2023-12-29T04:54:34;18.00;18.00;13.50
69746;PMS7003;57018;50.278;19.134;2023-12-29T04:57:07;21.50;19.50;13.50
69746;PMS7003;57018;50.278;19.134;2023-12-29T04:59:36;21.00;19.00;14.00
69746;PMS7003;57018;50.278;19.134;2023-12-29T05:02:09;17.50;17.50;12.00
69746;PMS7003;57018;50.278;19.134;2023-12-29T05:04:38;19.00;18.50;13.00
69746;PMS7003;57018;50.278;19.134;2023-12-29T05:07:08;17.67;15.33;12.00
69746;PMS7003;57018;50.278;19.134;2023-12-29T05:09:39;15.00;14.00;8.50
69746;PMS7003;57018;50.278;19.134;2023-12-29T05:12:09;18.00;18.00;10.50
69746;PMS7003;57018;50.278;19.134;2023-12-29T05:14:39;13.50;13.50;7.00
69746;PMS7003;57018;50.278;19.134;2023-12-29T05:17:09;12.00;12.00;10.00
69746;PMS7003;57018;50.278;19.134;2023-12-29T05:19:41;17.33;12.67;10.00
69746;PMS7003;57018;50.278;19.134;2023-12-29T05:22:11;21.00;14.50;10.00
69746;PMS7003;57018;50.278;19.134;2023-12-29T05:24:44;13.00;12.00;9.00
69746;PMS7003;57018;50.278;19.134;2023-12-29T05:27:14;16.50;16.50;10.00
69746;PMS7003;57018;50.278;19.134;2023-12-29T05:29:44;16.00;14.00;10.00
69746;PMS7003;57018;50.278;19.134;2023-12-29T05:32:16;17.00;15.00;10.00
69746;PMS7003;57018;50.278;19.134;2023-12-29T05:34:46;15.50;15.50;11.00
69746;PMS7003;57018;50.278;19.134;2023-12-29T05:37:16;18.00;16.00;10.00
69746;PMS7003;57018;50.278;19.134;2023-12-29T05:39:45;20.00;15.00;10.00
69746;PMS7003;57018;50.278;19.134;2023-12-29T05:42:18;18.50;16.00;11.50
69746;PMS7003;57018;50.278;19.134;2023-12-29T05:44:48;18.67;12.00;10.00
69746;PMS7003;57018;50.278;19.134;2023-12-29T05:47:18;14.50;14.50;11.00
69746;PMS7003;57018;50.278;19.134;2023-12-29T05:49:48;17.00;13.00;6.00
69746;PMS7003;57018;50.278;19.134;2023-12-29T05:52:18;16.00;16.00;12.00
69746;PMS7003;57018;50.278;19.134;2023-12-29T05:54:49;17.00;16.00;10.00
69746;PMS7003;57018;50.278;19.134;2023-12-29T05:57:18;19.00;17.00;10.50
69746;PMS7003;57018;50.278;19.134;2023-12-29T05:59:48;16.00;15.00;11.00
69746;PMS7003;57018;50.278;19.134;2023-12-29T06:02:20;15.00;15.00;10.00
69746;PMS7003;57018;50.278;19.134;2023-12-29T06:04:50;8.00;5.33;1.67
69746;PMS7003;57018;50.278;19.134;2023-12-29T06:07:20;17.00;17.00;11.00
69746;PMS7003;57018;50.278;19.134;2023-12-29T06:09:50;17.00;16.50;11.50
69746;PMS7003;57018;50.278;19.134;2023-12-29T06:12:20;17.00;14.00;11.00
69746;PMS7003;57018;50.278;19.134;2023-12-29T06:14:50;12.67;12.67;7.33
69746;PMS7003;57018;50.278;19.134;2023-12-29T06:17:20;17.00;15.50;9.00
69746;PMS7003;57018;50.278;19.134;2023-12-29T06:19:49;16.00;13.00;10.00
69746;PMS7003;57018;50.278;19.134;2023-12-29T06:22:19;17.50;16.00;10.00
69746;PMS7003;57018;50.278;19.134;2023-12-29T06:24:49;15.50;15.00;8.00
69746;PMS7003;57018;50.278;19.134;2023-12-29T06:27:19;12.00;12.00;9.00
69746;PMS7003;57018;50.278;19.134;2023-12-29T06:29:49;13.00;12.00;8.00
69746;PMS7003;57018;50.278;19.134;2023-12-29T06:32:19;21.50;17.50;11.00
69746;PMS7003;57018;50.278;19.134;2023-12-29T06:34:49;12.50;10.00;9.50
69746;PMS7003;57018;50.278;19.134;2023-12-29T06:39:47;17.00;13.00;10.67
69746;PMS7003;57018;50.278;19.134;2023-12-29T06:42:17;11.00;9.00;8.00
69746;PMS7003;57018;50.278;19.134;2023-12-29T06:44:49;14.00;14.00;11.00
69746;PMS7003;57018;50.278;19.134;2023-12-29T06:47:19;13.00;12.00;9.00
69746;PMS7003;57018;50.278;19.134;2023-12-29T06:49:50;13.00;12.00;8.00
69746;PMS7003;57018;50.278;19.134;2023-12-29T06:52:20;12.50;10.50;8.00
69746;PMS7003;57018;50.278;19.134;2023-12-29T06:54:53;12.00;12.00;10.00
69746;PMS7003;57018;50.278;19.134;2023-12-29T06:57:23;14.33;13.33;10.33
69746;PMS7003;57018;50.278;19.134;2023-12-29T06:59:54;15.67;13.67;9.67
69746;PMS7003;57018;50.278;19.134;2023-12-29T07:02:24;17.00;16.00;12.00
69746;PMS7003;57018;50.278;19.134;2023-12-29T07:07:22;15.67;14.67;10.00
69746;PMS7003;57018;50.278;19.134;2023-12-29T07:09:52;16.75;15.50;10.50
69746;PMS7003;57018;50.278;19.134;2023-12-29T07:12:22;12.00;12.00;9.50
69746;PMS7003;57018;50.278;19.134;2023-12-29T07:14:52;21.50;17.50;12.00
69746;PMS7003;57018;50.278;19.134;2023-12-29T07:17:21;18.00;16.50;11.50
69746;PMS7003;57018;50.278;19.134;2023-12-29T07:19:51;21.00;19.50;14.50
69746;PMS7003;57018;50.278;19.134;2023-12-29T07:22:21;17.00;14.50;10.00
69746;PMS7003;57018;50.278;19.134;2023-12-29T07:24:51;16.00;15.67;11.67
69746;PMS7003;57018;50.278;19.134;2023-12-29T07:27:21;21.00;16.00;10.00
69746;PMS7003;57018;50.278;19.134;2023-12-29T07:29:51;16.00;15.00;9.00
69746;PMS7003;57018;50.278;19.134;2023-12-29T07:32:21;18.50;16.00;10.00
69746;PMS7003;57018;50.278;19.134;2023-12-29T07:34:50;14.00;13.00;10.00
69746;PMS7003;57018;50.278;19.134;2023-12-29T07:37:21;17.50;13.50;10.50
69746;PMS7003;57018;50.278;19.134;2023-12-29T07:39:53;13.00;11.00;8.00
69746;PMS7003;57018;50.278;19.134;2023-12-29T07:42:23;15.00;15.00;11.00
69746;PMS7003;57018;50.278;19.134;2023-12-29T07:44:53;16.00;14.67;11.00
69746;PMS7003;57018;50.278;19.134;2023-12-29T07:47:26;12.33;12.00;10.33
69746;PMS7003;57018;50.278;19.134;2023-12-29T07:49:56;15.00;15.00;10.50
69746;PMS7003;57018;50.278;19.134;2023-12-29T07:52:26;14.00;13.33;9.00
69746;PMS7003;57018;50.278;19.134;2023-12-29T07:54:55;17.00;16.00;10.50
69746;PMS7003;57018;50.278;19.134;2023-12-29T07:57:26;17.00;16.00;12.00
69746;PMS7003;57018;50.278;19.134;2023-12-29T07:59:56;17.00;14.00;10.00
69746;PMS7003;57018;50.278;19.134;2023-12-29T08:02:26;14.00;13.00;12.00
69746;PMS7003;57018;50.278;19.134;2023-12-29T08:04:58;20.00;18.50;13.00
69746;PMS7003;57018;50.278;19.134;2023-12-29T08:07:28;12.50;12.50;11.00
69746;PMS7003;57018;50.278;19.134;2023-12-29T08:10:00;16.50;15.00;11.00
69746;PMS7003;57018;50.278;19.134;2023-12-29T08:12:34;15.00;13.00;8.00
69746;PMS7003;57018;50.278;19.134;2023-12-29T08:15:06;15.67;12.67;10.67
69746;PMS7003;57018;50.278;19.134;2023-12-29T08:17:36;15.00;14.00;9.00
69746;PMS7003;57018;50.278;19.134;2023-12-29T08:20:10;19.50;17.50;12.00
69746;PMS7003;57018;50.278;19.134;2023-12-29T08:22:42;19.00;18.00;12.00
69746;PMS7003;57018;50.278;19.134;2023-12-29T08:25:12;15.00;15.00;10.00
69746;PMS7003;57018;50.278;19.134;2023-12-29T08:27:42;16.00;15.00;11.00
69746;PMS7003;57018;50.278;19.134;2023-12-29T08:30:13;17.50;15.50;11.00
69746;PMS7003;57018;50.278;19.134;2023-12-29T08:32:43;21.00;17.00;11.00
69746;PMS7003;57018;50.278;19.134;2023-12-29T08:35:16;19.25;18.25;13.25
69746;PMS7003;57018;50.278;19.134;2023-12-29T08:37:46;20.00;19.00;14.00
69746;PMS7003;57018;50.278;19.134;2023-12-29T08:40:16;18.00;17.50;12.00
69746;PMS7003;57018;50.278;19.134;2023-12-29T08:42:46;15.33;15.33;10.67
69746;PMS7003;57018;50.278;19.134;2023-12-29T08:45:16;15.00;15.00;11.00
69746;PMS7003;57018;50.278;19.134;2023-12-29T08:47:49;19.00;19.00;12.50
69746;PMS7003;57018;50.278;19.134;2023-12-29T08:50:19;20.00;17.50;15.50
69746;PMS7003;57018;50.278;19.134;2023-12-29T08:52:51;22.50;18.00;12.50
69746;PMS7003;57018;50.278;19.134;2023-12-29T08:55:21;19.00;17.00;11.00
69746;PMS7003;57018;50.278;19.134;2023-12-29T08:57:51;20.00;20.00;12.00
69746;PMS7003;57018;50.278;19.134;2023-12-29T09:00:21;20.00;17.50;11.00
69746;PMS7003;57018;50.278;19.134;2023-12-29T09:02:51;17.50;15.00;9.00
69746;PMS7003;57018;50.278;19.134;2023-12-29T09:05:21;15.00;12.00;7.00
69746;PMS7003;57018;50.278;19.134;2023-12-29T09:07:52;20.00;17.00;11.50
69746;PMS7003;57018;50.278;19.134;2023-12-29T09:10:21;10.50;10.00;6.00
69746;PMS7003;57018;50.278;19.134;2023-12-29T09:12:51;13.00;13.00;8.00
69746;PMS7003;57018;50.278;19.134;2023-12-29T09:15:21;12.67;12.00;8.67
69746;PMS7003;57018;50.278;19.134;2023-12-29T09:17:52;18.00;18.00;12.00
69746;PMS7003;57018;50.278;19.134;2023-12-29T09:20:22;21.67;17.00;10.33
69746;PMS7003;57018;50.278;19.134;2023-12-29T09:22:53;17.00;14.00;9.00
69746;PMS7003;57018;50.278;19.134;2023-12-29T09:25:23;10.50;10.50;7.00
69746;PMS7003;57018;50.278;19.134;2023-12-29T09:27:56;14.00;12.00;9.00
69746;PMS7003;57018;50.278;19.134;2023-12-29T09:30:27;15.00;15.00;13.00
69746;PMS7003;57018;50.278;19.134;2023-12-29T09:32:56;18.00;18.00;12.00
69746;PMS7003;57018;50.278;19.134;2023-12-29T09:35:26;17.50;16.50;11.50
69746;PMS7003;57018;50.278;19.134;2023-12-29T09:37:57;21.00;18.00;13.00
69746;PMS7003;57018;50.278;19.134;2023-12-29T09:40:29;10.00;10.00;4.00
69746;PMS7003;57018;50.278;19.134;2023-12-29T09:43:00;19.00;15.00;10.00
69746;PMS7003;57018;50.278;19.134;2023-12-29T09:45:33;7.00;7.00;3.50
69746;PMS7003;57018;50.278;19.134;2023-12-29T09:48:07;15.00;10.00;8.00
69746;PMS7003;57018;50.278;19.134;2023-12-29T09:50:39;16.50;14.00;10.50
69746;PMS7003;57018;50.278;19.134;2023-12-29T09:53:12;14.75;12.75;9.50
69746;PMS7003;57018;50.278;19.134;2023-12-29T09:55:44;15.50;13.00;8.50
69746;PMS7003;57018;50.278;19.134;2023-12-29T09:58:16;6.50;6.50;5.00
69746;PMS7003;57018;50.278;19.134;2023-12-29T10:00:48;17.50;14.00;9.00
69746;PMS7003;57018;50.278;19.134;2023-12-29T10:03:19;21.00;16.00;12.00
69746;PMS7003;57018;50.278;19.134;2023-12-29T10:05:50;25.00;21.00;14.00
69746;PMS7003;57018;50.278;19.134;2023-12-29T10:08:23;16.33;14.67;12.00
69746;PMS7003;57018;50.278;19.134;2023-12-29T10:10:58;12.50;11.00;8.50
69746;PMS7003;57018;50.278;19.134;2023-12-29T10:13:28;12.00;11.00;7.50
69746;PMS7003;57018;50.278;19.134;2023-12-29T10:16:01;12.00;11.00;7.50
69746;PMS7003;57018;50.278;19.134;2023-12-29T10:18:37;15.00;14.00;10.00
69746;PMS7003;57018;50.278;19.134;2023-12-29T10:21:23;16.33;12.67;10.33
69746;PMS7003;57018;50.278;19.134;2023-12-29T10:23:58;17.50;17.50;10.00
69746;PMS7003;57018;50.278;19.134;2023-12-29T10:26:37;15.00;14.50;8.00
69746;PMS7003;57018;50.278;19.134;2023-12-29T10:29:08;17.50;15.00;10.00
69746;PMS7003;57018;50.278;19.134;2023-12-29T10:31:38;20.00;19.00;11.00
69746;PMS7003;57018;50.278;19.134;2023-12-29T10:36:55;13.00;12.00;8.00
69746;PMS7003;57018;50.278;19.134;2023-12-29T10:39:28;14.50;13.50;9.00
69746;PMS7003;57018;50.278;19.134;2023-12-29T10:42:04;23.00;16.00;10.00
69746;PMS7003;57018;50.278;19.134;2023-12-29T10:44:36;12.00;10.50;7.00
69746;PMS7003;57018;50.278;19.134;2023-12-29T10:47:09;11.50;11.50;8.50
69746;PMS7003;57018;50.278;19.134;2023-12-29T10:49:41;8.50;8.00;6.00
69746;PMS7003;57018;50.278;19.134;2023-12-29T10:52:14;15.00;14.00;9.00
69746;PMS7003;57018;50.278;19.134;2023-12-29T10:54:44;17.00;16.00;10.00
69746;PMS7003;57018;50.278;19.134;2023-12-29T10:57:14;17.00;17.00;11.00
69746;PMS7003;57018;50.278;19.134;2023-12-29T10:59:44;21.00;18.00;11.00
69746;PMS7003;57018;50.278;19.134;2023-12-29T11:02:24;15.00;13.33;8.67
69746;PMS7003;57018;50.278;19.134;2023-12-29T11:04:58;18.00;18.00;12.50
69746;PMS7003;57018;50.278;19.134;2023-12-29T11:07:35;15.50;13.50;10.50
69746;PMS7003;57018;50.278;19.134;2023-12-29T11:10:07;11.00;10.00;8.00
69746;PMS7003;57018;50.278;19.134;2023-12-29T11:12:37;13.00;13.00;9.00
69746;PMS7003;57018;50.278;19.134;2023-12-29T11:15:08;18.00;18.00;11.00
69746;PMS7003;57018;50.278;19.134;2023-12-29T11:17:42;15.33;14.00;9.00
69746;PMS7003;57018;50.278;19.134;2023-12-29T11:20:16;14.00;13.00;8.00
69746;PMS7003;57018;50.278;19.134;2023-12-29T11:22:53;14.00;11.00;8.00
69746;PMS7003;57018;50.278;19.134;2023-12-29T11:25:23;10.75;7.00;4.00
69746;PMS7003;57018;50.278;19.134;2023-12-29T11:27:53;18.00;16.50;11.00
69746;PMS7003;57018;50.278;19.134;2023-12-29T11:30:24;14.50;11.50;8.00
69746;PMS7003;57018;50.278;19.134;2023-12-29T11:32:56;16.00;14.00;9.00
69746;PMS7003;57018;50.278;19.134;2023-12-29T11:35:32;21.00;19.00;12.00
69746;PMS7003;57018;50.278;19.134;2023-12-29T11:38:24;21.50;20.00;12.50
69746;PMS7003;57018;50.278;19.134;2023-12-29T11:41:09;18.00;17.00;10.00
69746;PMS7003;57018;50.278;19.134;2023-12-29T11:43:42;23.00;22.00;13.00
69746;PMS7003;57018;50.278;19.134;2023-12-29T11:49:05;18.00;18.00;13.00
69746;PMS7003;57018;50.278;19.134;2023-12-29T11:51:36;28.00;23.50;13.50
69746;PMS7003;57018;50.278;19.134;2023-12-29T11:54:10;13.00;12.00;9.00
69746;PMS7003;57018;50.278;19.134;2023-12-29T11:56:49;17.00;15.00;10.00
69746;PMS7003;57018;50.278;19.134;2023-12-29T11:59:20;14.00;14.00;11.00
69746;PMS7003;57018;50.278;19.134;2023-12-29T12:01:52;16.50;15.50;10.00
69746;PMS7003;57018;50.278;19.134;2023-12-29T12:04:35;17.00;13.00;10.00
69746;PMS7003;57018;50.278;19.134;2023-12-29T12:07:09;11.67;10.33;8.00
69746;PMS7003;57018;50.278;19.134;2023-12-29T12:09:44;15.00;15.00;10.50
69746;PMS7003;57018;50.278;19.134;2023-12-29T12:12:37;14.00;12.00;9.00
69746;PMS7003;57018;50.278;19.134;2023-12-29T12:17:54;14.00;12.00;11.00
69746;PMS7003;57018;50.278;19.134;2023-12-29T12:20:25;22.00;19.00;11.00
69746;PMS7003;57018;50.278;19.134;2023-12-29T12:22:57;20.00;15.00;11.00
69746;PMS7003;57018;50.278;19.134;2023-12-29T12:25:29;17.50;17.00;11.00
69746;PMS7003;57018;50.278;19.134;2023-12-29T12:28:02;23.00;20.00;13.00
69746;PMS7003;57018;50.278;19.134;2023-12-29T12:30:35;19.50;16.00;11.50
69746;PMS7003;57018;50.278;19.134;2023-12-29T12:33:08;13.00;12.00;8.00
69746;PMS7003;57018;50.278;19.134;2023-12-29T12:35:40;15.33;14.33;10.00
69746;PMS7003;57018;50.278;19.134;2023-12-29T12:38:14;14.00;13.00;10.00
69746;PMS7003;57018;50.278;19.134;2023-12-29T12:40:48;20.00;16.00;10.00
69746;PMS7003;57018;50.278;19.134;2023-12-29T12:43:18;18.00;14.00;10.00
69746;PMS7003;57018;50.278;19.134;2023-12-29T12:46:00;20.25;19.25;12.00
69746;PMS7003;57018;50.278;19.134;2023-12-29T12:48:32;17.50;16.00;8.50
69746;PMS7003;57018;50.278;19.134;2023-12-29T12:51:09;18.00;17.00;11.00
69746;PMS7003;57018;50.278;19.134;2023-12-29T12:53:40;17.33;17.33;13.00
69746;PMS7003;57018;50.278;19.134;2023-12-29T12:56:14;12.00;12.00;9.00
69746;PMS7003;57018;50.278;19.134;2023-12-29T12:58:46;10.00;10.00;7.00
69746;PMS7003;57018;50.278;19.134;2023-12-29T13:01:16;16.00;14.00;9.00
69746;PMS7003;57018;50.278;19.134;2023-12-29T13:03:47;14.00;14.00;10.00
69746;PMS7003;57018;50.278;19.134;2023-12-29T13:06:17;15.50;12.00;8.00
69746;PMS7003;57018;50.278;19.134;2023-12-29T13:08:49;22.00;19.00;11.00
69746;PMS7003;57018;50.278;19.134;2023-12-29T13:11:23;19.00;18.00;10.00
69746;PMS7003;57018;50.278;19.134;2023-12-29T13:13:53;16.50;16.00;11.50
69746;PMS7003;57018;50.278;19.134;2023-12-29T13:16:30;14.50;14.50;10.00
69746;PMS7003;57018;50.278;19.134;2023-12-29T13:21:47;20.00;19.00;13.00
69746;PMS7003;57018;50.278;19.134;2023-12-29T13:24:18;23.67;18.67;13.67
69746;PMS7003;57018;50.278;19.134;2023-12-29T13:29:20;18.50;18.50;11.00
69746;PMS7003;57018;50.278;19.134;2023-12-29T13:31:53;15.00;13.00;9.00
69746;PMS7003;57018;50.278;19.134;2023-12-29T13:34:29;17.00;15.00;9.00
69746;PMS7003;57018;50.278;19.134;2023-12-29T13:37:09;16.00;15.00;11.33
69746;PMS7003;57018;50.278;19.134;2023-12-29T13:39:51;18.00;16.50;11.50
69746;PMS7003;57018;50.278;19.134;2023-12-29T13:42:26;16.00;15.00;11.00
69746;PMS7003;57018;50.278;19.134;2023-12-29T13:45:00;22.50;19.00;13.00
69746;PMS7003;57018;50.278;19.134;2023-12-29T13:47:33;15.00;15.00;9.00
69746;PMS7003;57018;50.278;19.134;2023-12-29T13:50:08;21.00;19.00;14.00
69746;PMS7003;57018;50.278;19.134;2023-12-29T13:52:38;29.00;22.00;14.50
69746;PMS7003;57018;50.278;19.134;2023-12-29T13:55:09;23.00;21.00;16.00
69746;PMS7003;57018;50.278;19.134;2023-12-29T13:57:41;18.00;18.00;13.00
69746;PMS7003;57018;50.278;19.134;2023-12-29T14:00:15;17.00;15.00;12.00
69746;PMS7003;57018;50.278;19.134;2023-12-29T14:02:57;15.00;15.00;11.50
69746;PMS7003;57018;50.278;19.134;2023-12-29T14:05:35;18.00;17.00;13.00
69746;PMS7003;57018;50.278;19.134;2023-12-29T14:08:09;18.00;18.00;12.50
69746;PMS7003;57018;50.278;19.134;2023-12-29T14:10:47;19.00;17.00;13.00
69746;PMS7003;57018;50.278;19.134;2023-12-29T14:13:17;18.00;17.00;10.00
69746;PMS7003;57018;50.278;19.134;2023-12-29T14:15:47;23.50;20.00;14.00
69746;PMS7003;57018;50.278;19.134;2023-12-29T14:18:25;21.00;19.00;14.00
69746;PMS7003;57018;50.278;19.134;2023-12-29T14:21:21;19.00;18.50;13.00
69746;PMS7003;57018;50.278;19.134;2023-12-29T14:24:05;20.00;16.00;10.50
69746;PMS7003;57018;50.278;19.134;2023-12-29T14:26:37;26.00;21.00;16.00